Time;durP1;ratioP1;P1;durP2;ratioP2;P2;SDS_P1;SDS_P2;PMS_P1;PMS_P2;Temp;Humidity;BMP_temperature;BMP_pressure;BME280_temperature;BME280_humidity;BME280_pressure;Samples;Min_cycle;Max_cycle;Signal;HPM_P1;HPM_P2
2022/04/04 00:01:16;;;;;;;9.13;6.73;;;;;;;3.41;70.24;94965.31;6149757;23;20663;-85
2022/04/04 00:03:45;;;;;;;10.13;6.90;;;;;;;3.32;70.96;94965.50;6149612;23;20185;-82
2022/04/04 00:06:14;;;;;;;10.20;7.23;;;;;;;3.39;70.94;94964.69;6148873;23;20565;-82
2022/04/04 00:08:42;;;;;;;10.27;6.77;;;;;;;3.22;71.51;94964.91;6148185;23;20168;-81
2022/04/04 00:11:09;;;;;;;9.33;6.50;;;;;;;3.12;71.85;94957.38;6147830;23;20175;-81
2022/04/04 00:13:56;;;;;;;11.10;7.13;;;;;;;3.12;72.23;94959.13;6146326;23;20187;-81
2022/04/04 00:16:24;;;;;;;8.90;6.37;;;;;;;3.22;71.38;94968.28;6146417;23;20240;-80
2022/04/04 00:18:52;;;;;;;9.93;6.60;;;;;;;3.34;71.66;94966.97;6146538;23;20171;-80
2022/04/04 00:21:20;;;;;;;10.13;7.10;;;;;;;3.39;70.50;94976.72;6145310;23;20175;-80
2022/04/04 00:23:48;;;;;;;10.03;7.13;;;;;;;3.27;71.60;94962.63;6145915;23;20228;-80
2022/04/04 00:26:15;;;;;;;8.83;6.90;;;;;;;3.26;72.05;94963.63;6146542;23;20172;-79
2022/04/04 00:28:42;;;;;;;11.17;6.63;;;;;;;3.12;72.84;94965.09;6147461;23;20167;-80
2022/04/04 00:31:14;;;;;;;9.17;6.60;;;;;;;3.06;73.29;94960.59;6146551;23;20172;-81
2022/04/04 00:33:42;;;;;;;10.43;6.87;;;;;;;3.13;72.81;94966.69;6146423;23;20180;-82
2022/04/04 00:36:11;;;;;;;15.37;7.40;;;;;;;3.24;72.80;94968.09;6147846;23;20246;-90
2022/04/04 00:38:39;;;;;;;11.10;7.00;;;;;;;3.33;72.06;94955.06;6148534;23;20507;-87
2022/04/04 00:41:10;;;;;;;8.17;6.37;;;;;;;3.28;71.65;94959.91;6149412;23;20164;-86
2022/04/04 00:43:39;;;;;;;8.07;6.30;;;;;;;3.33;71.69;94969.69;6147850;23;20176;-86
2022/04/04 00:46:06;;;;;;;9.90;6.67;;;;;;;3.39;71.71;94969.03;6148916;23;20172;-89
2022/04/04 00:48:35;;;;;;;10.37;6.93;;;;;;;3.32;70.76;94955.22;6148448;23;20199;-87
2022/04/04 00:51:04;;;;;;;8.97;6.90;;;;;;;3.38;71.11;94959.69;6148426;23;20164;-88
2022/04/04 00:53:33;;;;;;;9.43;6.60;;;;;;;3.34;70.67;94966.97;6147244;23;20218;-87
2022/04/04 00:56:01;;;;;;;10.03;6.53;;;;;;;3.03;72.14;94971.19;6149796;23;20171;-87
2022/04/04 00:58:30;;;;;;;8.63;6.60;;;;;;;2.87;73.24;94971.25;6148936;23;20627;-87
2022/04/04 01:00:59;;;;;;;8.27;6.30;;;;;;;2.82;73.91;94968.38;6149288;23;20168;-86
2022/04/04 01:03:27;;;;;;;7.50;6.20;;;;;;;2.75;73.87;94972.53;6151604;23;20917;-90
2022/04/04 01:05:58;;;;;;;9.10;6.33;;;;;;;2.73;73.91;94974.47;6151650;23;20171;-88
2022/04/04 01:08:26;;;;;;;7.50;5.97;;;;;;;2.65;74.51;94959.91;6150874;23;20242;-90
2022/04/04 01:10:55;;;;;;;7.63;6.07;;;;;;;2.70;74.95;94967.09;6152031;23;20159;-90
2022/04/04 01:13:46;;;;;;;9.43;6.80;;;;;;;2.68;74.64;94969.03;6151625;23;20201;-90
2022/04/04 01:16:15;;;;;;;10.33;7.03;;;;;;;2.74;75.23;94958.91;6151825;23;20215;-92
2022/04/04 01:18:43;;;;;;;9.20;6.60;;;;;;;2.72;75.60;94960.03;6151558;23;20168;-89
2022/04/04 01:21:25;;;;;;;10.60;7.00;;;;;;;2.70;75.03;94957.63;6151270;23;20530;-87
2022/04/04 01:24:24;;;;;;;8.37;6.07;;;;;;;2.72;75.09;94960.03;6152824;23;20197;-88
2022/04/04 01:26:55;;;;;;;8.80;6.50;;;;;;;2.70;75.12;94959.41;6153252;23;20164;-89
2022/04/04 01:29:24;;;;;;;8.47;6.20;;;;;;;2.62;74.97;94944.03;6150918;23;20209;-86
2022/04/04 01:31:52;;;;;;;11.43;7.73;;;;;;;2.73;75.42;94947.06;6151076;23;20206;-85
2022/04/04 01:34:21;;;;;;;8.90;6.33;;;;;;;2.83;74.37;94936.59;6150627;23;20782;-85
2022/04/04 01:36:48;;;;;;;8.77;6.27;;;;;;;2.76;74.49;94944.16;6150901;23;20652;-85
2022/04/04 01:39:15;;;;;;;8.40;6.13;;;;;;;2.62;74.68;94934.56;6150208;23;20171;-85
2022/04/04 01:41:42;;;;;;;7.60;5.80;;;;;;;2.68;73.71;94945.94;6150439;23;20182;-85
2022/04/04 01:44:10;;;;;;;8.70;6.00;;;;;;;2.59;74.26;94955.41;6150048;23;20175;-85
2022/04/04 01:46:37;;;;;;;8.07;6.17;;;;;;;2.54;74.41;94960.19;6149966;23;20179;-85
2022/04/04 01:49:06;;;;;;;8.93;6.00;;;;;;;2.54;74.39;94951.72;6151016;23;20199;-87
2022/04/04 01:51:37;;;;;;;10.47;6.17;;;;;;;2.60;74.65;94956.19;6151513;23;20167;-87
2022/04/04 01:54:05;;;;;;;9.07;6.57;;;;;;;2.66;74.31;94958.09;6152035;23;20516;-86
2022/04/04 01:56:33;;;;;;;8.50;6.20;;;;;;;2.69;73.81;94961.16;6151423;23;20581;-87
2022/04/04 01:59:00;;;;;;;12.07;6.87;;;;;;;2.56;74.30;94948.03;6152164;23;20178;-87
2022/04/04 02:01:32;;;;;;;9.97;6.63;;;;;;;2.70;74.17;94969.66;6151716;23;20167;-86
2022/04/04 02:03:59;;;;;;;10.87;7.43;;;;;;;2.80;73.45;94960.00;6151747;23;20190;-86
2022/04/04 02:06:33;;;;;;;10.80;7.57;;;;;;;2.83;73.24;94962.25;6152619;23;20178;-87
2022/04/04 02:09:00;;;;;;;12.00;7.47;;;;;;;2.79;73.52;94958.44;6151513;23;20156;-87
2022/04/04 02:11:27;;;;;;;9.87;7.13;;;;;;;2.73;74.07;94959.06;6165724;23;20172;-86
2022/04/04 02:13:57;;;;;;;12.33;7.47;;;;;;;2.74;73.95;94958.91;6154989;23;20183;-87
2022/04/04 02:16:24;;;;;;;11.13;7.27;;;;;;;2.83;73.84;94945.09;6148281;23;20156;-88
2022/04/04 02:18:52;;;;;;;10.60;7.10;;;;;;;2.82;73.60;94935.00;6148385;23;20175;-88
2022/04/04 02:21:20;;;;;;;9.50;6.90;;;;;;;2.84;72.49;94954.41;6146721;23;20777;-86
2022/04/04 02:23:47;;;;;;;10.73;6.93;;;;;;;2.79;72.75;94940.47;6147686;23;20175;-88
2022/04/04 02:26:26;;;;;;;11.43;6.93;;;;;;;2.88;72.93;94943.81;6148226;23;20168;-87
2022/04/04 02:28:53;;;;;;;8.27;5.90;;;;;;;2.80;72.46;94948.00;6148660;23;20570;-86
2022/04/04 02:31:19;;;;;;;9.27;6.40;;;;;;;2.90;71.77;94944.44;6148257;23;20255;-86
2022/04/04 02:33:46;;;;;;;8.83;6.47;;;;;;;2.98;70.98;94942.66;6148801;23;20195;-86
2022/04/04 02:36:14;;;;;;;10.80;6.67;;;;;;;2.75;71.85;94921.22;6149239;23;20171;-86
2022/04/04 02:38:46;;;;;;;10.23;7.00;;;;;;;2.75;72.11;94929.72;6148446;23;20653;-87
2022/04/04 02:41:19;;;;;;;13.57;7.43;;;;;;;2.65;72.17;94936.00;6150003;23;20528;-86
2022/04/04 02:43:46;;;;;;;9.80;6.93;;;;;;;2.64;71.66;94934.38;6149661;23;20175;-86
2022/04/04 02:46:29;;;;;;;9.20;6.57;;;;;;;2.71;71.20;94927.66;6150046;23;20174;-86
2022/04/04 02:48:56;;;;;;;9.10;6.70;;;;;;;2.53;71.49;94927.03;6151046;23;20207;-85
2022/04/04 02:51:24;;;;;;;9.70;7.27;;;;;;;2.51;72.24;94934.09;6150480;23;20174;-85
2022/04/04 02:53:51;;;;;;;13.50;7.63;;;;;;;2.40;72.21;94914.69;6150285;23;20195;-86
2022/04/04 02:56:29;;;;;;;14.37;7.80;;;;;;;2.39;72.69;94909.75;6149513;23;20152;-85
2022/04/04 02:58:57;;;;;;;12.47;7.60;;;;;;;2.54;72.13;94929.44;6149401;23;20163;-86
2022/04/04 03:01:24;;;;;;;13.13;7.00;;;;;;;2.62;70.99;94939.69;6150024;23;20174;-85
2022/04/04 03:03:51;;;;;;;10.97;7.87;;;;;;;2.73;70.65;94941.13;6150627;23;20171;-85
2022/04/04 03:06:18;;;;;;;12.80;7.27;;;;;;;2.64;70.67;94914.69;6149517;23;20182;-86
2022/04/04 03:08:47;;;;;;;14.63;7.83;;;;;;;2.52;72.04;94933.94;6150673;23;20167;-86
2022/04/04 03:11:15;;;;;;;11.13;7.90;;;;;;;2.15;72.93;94900.28;6150411;23;20163;-86
2022/04/04 03:13:42;;;;;;;11.77;7.80;;;;;;;2.05;73.49;94895.31;6150093;23;20273;-88
2022/04/04 03:16:09;;;;;;;9.60;7.47;;;;;;;2.23;73.88;94933.59;6150660;23;20229;-87
2022/04/04 03:18:36;;;;;;;13.20;8.00;;;;;;;2.11;74.29;94925.44;6150690;23;20164;-86
2022/04/04 03:21:05;;;;;;;11.07;7.57;;;;;;;2.02;74.89;94921.25;6149695;23;20172;-85
2022/04/04 03:23:43;;;;;;;10.67;7.77;;;;;;;2.06;74.61;94937.94;6147891;23;20503;-88
2022/04/04 03:26:19;;;;;;;11.67;7.57;;;;;;;2.14;75.22;94943.06;6144168;23;20549;-88
2022/04/04 03:28:57;;;;;;;11.53;8.07;;;;;;;2.34;74.40;94946.09;6149679;23;20179;-89
2022/04/04 03:31:24;;;;;;;15.33;7.97;;;;;;;2.49;73.86;94952.19;6150224;23;20156;-88
2022/04/04 03:33:50;;;;;;;11.97;8.20;;;;;;;2.59;73.07;94957.16;6147719;23;20544;-89
2022/04/04 03:36:17;;;;;;;14.73;8.73;;;;;;;2.54;72.83;94957.63;6148182;23;20172;-90
2022/04/04 03:38:53;;;;;;;13.27;8.70;;;;;;;2.38;73.92;94961.97;6148832;23;20171;-90
2022/04/04 03:41:21;;;;;;;13.50;8.90;;;;;;;2.31;74.30;94951.56;6148780;23;20633;-90
2022/04/04 03:43:48;;;;;;;16.53;9.10;;;;;;;2.23;74.31;94959.25;6148711;23;20635;-89
2022/04/04 03:46:15;;;;;;;13.07;8.80;;;;;;;2.09;74.43;94944.50;6148253;23;20180;-89
2022/04/04 03:48:42;;;;;;;14.57;9.47;;;;;;;2.05;75.63;94966.28;6146886;23;20535;-88
2022/04/04 03:51:09;;;;;;;15.37;10.27;;;;;;;1.99;75.98;94967.69;6149386;23;20180;-88
2022/04/04 03:53:47;;;;;;;17.73;10.60;;;;;;;2.05;76.12;94968.84;6148576;23;20170;-88
2022/04/04 03:56:14;;;;;;;21.17;11.87;;;;;;;2.16;75.07;94969.34;6145376;23;20166;-72
2022/04/04 03:58:42;;;;;;;22.50;12.10;;;;;;;2.23;74.83;94972.88;6144470;23;20174;-75
2022/04/04 04:01:09;;;;;;;16.40;10.90;;;;;;;2.26;75.05;94976.88;6140900;23;20534;-72
2022/04/04 04:03:36;;;;;;;22.00;11.57;;;;;;;2.37;74.54;94986.81;6147421;23;20170;-73
2022/04/04 04:06:12;;;;;;;17.90;10.90;;;;;;;2.46;74.08;94985.06;6147665;23;20174;-73
2022/04/04 04:08:40;;;;;;;18.40;11.47;;;;;;;2.50;73.67;94991.47;6147741;23;20178;-73
2022/04/04 04:11:07;;;;;;;20.40;11.97;;;;;;;2.56;72.85;94989.06;6147430;23;20203;-73
2022/04/04 04:13:34;;;;;;;21.73;11.83;;;;;;;2.61;72.49;94994.53;6147184;23;20170;-73
2022/04/04 04:16:03;;;;;;;18.67;12.27;;;;;;;2.46;74.00;94988.41;6148152;23;20202;-73
2022/04/04 04:18:30;;;;;;;17.53;11.00;;;;;;;2.29;74.46;95003.00;6147563;23;20207;-74
2022/04/04 04:20:56;;;;;;;18.60;11.30;;;;;;;2.29;74.93;95009.88;6146984;23;20293;-73
2022/04/04 04:23:24;;;;;;;19.07;10.93;;;;;;;2.35;75.22;95008.44;6147549;23;20243;-73
2022/04/04 04:25:50;;;;;;;16.10;10.50;;;;;;;2.22;74.77;95007.16;6147468;23;20182;-74
2022/04/04 04:28:18;;;;;;;14.67;9.37;;;;;;;2.17;74.52;95011.94;6147735;23;20175;-74
2022/04/04 04:30:45;;;;;;;13.17;8.83;;;;;;;2.17;74.88;95011.94;6148184;23;20236;-74
2022/04/04 04:33:13;;;;;;;15.33;9.30;;;;;;;2.36;74.60;95021.13;6146596;23;20176;-74
2022/04/04 04:35:40;;;;;;;15.37;9.53;;;;;;;2.32;74.07;95019.81;6147433;23;20176;-74
2022/04/04 04:38:08;;;;;;;17.03;10.27;;;;;;;2.31;73.86;95020.00;6147747;23;20638;-74
2022/04/04 04:40:35;;;;;;;16.27;10.33;;;;;;;2.35;73.83;95029.75;6147058;23;20175;-74
2022/04/04 04:43:02;;;;;;;15.90;10.10;;;;;;;2.36;74.04;95030.56;6147068;23;20178;-73
2022/04/04 04:45:30;;;;;;;17.13;10.23;;;;;;;2.35;74.00;95026.41;6147002;23;20179;-74
2022/04/04 04:47:56;;;;;;;17.40;9.90;;;;;;;2.33;74.22;95031.69;6147568;23;20209;-74
2022/04/04 04:50:26;;;;;;;17.83;11.33;;;;;;;2.33;75.12;95031.69;6147200;23;20170;-74
2022/04/04 04:52:53;;;;;;;15.30;9.70;;;;;;;2.40;74.81;95032.66;6147469;23;20189;-74
2022/04/04 04:55:21;;;;;;;15.20;9.70;;;;;;;2.40;74.53;95029.28;6147614;23;20221;-74
2022/04/04 04:57:49;;;;;;;14.73;10.30;;;;;;;2.44;74.69;95030.56;6147971;23;20199;-73
2022/04/04 05:00:18;;;;;;;17.63;10.77;;;;;;;2.55;74.77;95035.38;6146436;23;20172;-74
2022/04/04 05:02:45;;;;;;;13.27;8.93;;;;;;;2.69;72.90;95038.13;6147692;23;20172;-73
2022/04/04 05:05:12;;;;;;;13.80;9.30;;;;;;;2.74;72.45;95040.22;6147702;23;20170;-73
2022/04/04 05:07:40;;;;;;;14.43;8.47;;;;;;;2.57;73.20;95041.97;6147273;23;20170;-74
2022/04/04 05:10:07;;;;;;;14.80;9.63;;;;;;;2.48;74.42;95044.69;6147791;23;20175;-73
2022/04/04 05:12:35;;;;;;;14.43;9.17;;;;;;;2.54;74.57;95042.28;6147237;23;20178;-73
2022/04/04 05:15:02;;;;;;;15.83;10.93;;;;;;;2.68;74.31;95036.53;6146804;23;20203;-73
2022/04/04 05:17:29;;;;;;;19.80;10.37;;;;;;;2.78;74.22;95041.50;6147650;23;20499;-74
2022/04/04 05:19:56;;;;;;;17.43;10.70;;;;;;;2.76;74.37;95048.56;6146666;23;20552;-75
2022/04/04 05:22:23;;;;;;;17.50;10.53;;;;;;;2.84;74.15;95046.78;6145505;23;20570;-74
2022/04/04 05:24:51;;;;;;;17.00;10.80;;;;;;;2.97;72.98;95048.88;6146332;23;20187;-73
2022/04/04 05:27:18;;;;;;;18.20;11.40;;;;;;;3.05;73.30;95054.00;6146221;23;20520;-72
2022/04/04 05:29:45;;;;;;;16.10;9.87;;;;;;;3.07;72.54;95059.75;6147468;23;20497;-72
2022/04/04 05:32:11;;;;;;;13.37;9.30;;;;;;;3.00;72.72;95058.03;6147340;23;20176;-75
2022/04/04 05:34:38;;;;;;;15.63;9.90;;;;;;;2.85;73.95;95068.94;6146928;23;20195;-73
2022/04/04 05:37:05;;;;;;;16.33;10.17;;;;;;;2.91;74.74;95071.81;6146626;23;20225;-75
2022/04/04 05:39:32;;;;;;;14.60;9.60;;;;;;;2.85;75.19;95065.56;6146896;23;20665;-74
2022/04/04 05:42:00;;;;;;;13.23;9.20;;;;;;;3.02;74.90;95072.28;6146684;23;20171;-74
2022/04/04 05:44:27;;;;;;;16.50;10.40;;;;;;;3.06;74.99;95076.13;6147263;23;20227;-74
2022/04/04 05:46:54;;;;;;;13.10;9.17;;;;;;;3.11;73.48;95079.03;6140080;23;20952;-74
2022/04/04 05:49:20;;;;;;;14.70;9.70;;;;;;;3.27;73.32;95079.00;6143436;23;20203;-73
2022/04/04 05:51:48;;;;;;;18.87;11.73;;;;;;;3.46;73.52;95082.19;6144797;23;20172;-75
2022/04/04 05:54:15;;;;;;;22.03;14.70;;;;;;;3.44;72.46;95090.03;6144875;23;20203;-74
2022/04/04 05:56:44;;;;;;;22.67;13.70;;;;;;;3.42;73.01;95077.38;6143770;23;20176;-73
2022/04/04 05:59:13;;;;;;;17.73;11.43;;;;;;;3.49;74.06;95082.66;6145104;23;20623;-75
2022/04/04 06:01:40;;;;;;;16.93;10.27;;;;;;;3.57;73.42;95081.84;6144205;23;20237;-73
2022/04/04 06:04:07;;;;;;;14.77;10.00;;;;;;;3.74;73.24;95080.81;6144787;23;20171;-73
2022/04/04 06:06:34;;;;;;;12.23;9.00;;;;;;;3.76;72.49;95081.44;6144387;23;20780;-73
2022/04/04 06:09:01;;;;;;;13.07;9.60;;;;;;;3.63;73.17;95073.47;6144005;23;20724;-73
2022/04/04 06:11:28;;;;;;;15.43;9.37;;;;;;;3.57;74.03;95087.78;6143355;23;20175;-72
2022/04/04 06:13:55;;;;;;;20.27;9.57;;;;;;;3.67;74.20;95079.88;6143483;23;20187;-72
2022/04/04 06:16:23;;;;;;;14.57;9.03;;;;;;;3.69;74.18;95067.69;6144205;23;20550;-73
2022/04/04 06:18:51;;;;;;;13.03;8.97;;;;;;;3.90;73.77;95063.56;6144085;23;20174;-72
2022/04/04 06:21:18;;;;;;;14.60;9.40;;;;;;;3.90;73.43;95076.41;6145008;23;20985;-72
2022/04/04 06:23:45;;;;;;;13.03;8.70;;;;;;;4.01;72.60;95075.28;6144615;23;20217;-72
2022/04/04 06:26:13;;;;;;;14.83;9.80;;;;;;;4.00;73.35;95069.31;6144971;23;20168;-72
2022/04/04 06:28:40;;;;;;;13.87;9.50;;;;;;;4.03;72.82;95063.03;6145162;23;20173;-71
2022/04/04 06:31:10;;;;;;;20.83;9.77;;;;;;;4.15;72.36;95069.41;6134009;23;20176;-72
2022/04/04 06:33:39;;;;;;;15.40;10.00;;;;;;;4.09;72.73;95049.53;6146304;23;20168;-72
2022/04/04 06:36:06;;;;;;;17.67;10.87;;;;;;;4.22;72.34;95065.19;6146274;23;20202;-72
2022/04/04 06:38:33;;;;;;;14.43;9.63;;;;;;;4.46;71.70;95071.97;6147512;23;20289;-73
2022/04/04 06:41:01;;;;;;;13.70;9.80;;;;;;;4.67;70.32;95076.50;6147293;23;20253;-71
2022/04/04 06:43:28;;;;;;;13.10;9.33;;;;;;;4.58;68.88;95068.84;6149372;23;20166;-76
2022/04/04 06:45:59;;;;;;;12.07;9.17;;;;;;;4.60;68.16;95073.81;6149109;23;20167;-80
2022/04/04 06:48:30;;;;;;;14.07;8.80;;;;;;;4.51;67.07;95067.13;6148868;23;20209;-77
2022/04/04 06:51:01;;;;;;;15.50;9.30;;;;;;;4.62;66.92;95084.72;6149128;23;20171;-79
2022/04/04 06:53:46;;;;;;;15.13;9.37;;;;;;;4.22;65.37;95015.50;6148700;23;20192;-79
2022/04/04 06:56:13;;;;;;;13.13;8.80;;;;;;;4.58;65.06;95075.78;6148950;23;20187;-79
2022/04/04 06:58:41;;;;;;;13.17;9.00;;;;;;;4.70;64.18;95089.84;6148946;23;20528;-83
2022/04/04 07:01:10;;;;;;;11.40;7.90;;;;;;;4.78;63.88;95101.84;6149373;23;20168;-82
2022/04/04 07:03:37;;;;;;;14.47;8.43;;;;;;;4.71;64.27;95062.31;6148857;23;20224;-78
2022/04/04 07:06:08;;;;;;;12.70;8.60;;;;;;;4.81;64.10;95078.34;6148369;23;20175;-79
2022/04/04 07:08:59;;;;;;;12.77;8.60;;;;;;;5.08;62.92;95104.34;6148781;23;20161;-80
2022/04/04 07:11:29;;;;;;;17.33;9.60;;;;;;;4.95;61.86;95085.31;6145334;23;20173;-80
2022/04/04 07:13:57;;;;;;;14.23;9.50;;;;;;;5.06;60.11;95100.34;6149003;23;20631;-80
2022/04/04 07:16:25;;;;;;;15.57;9.27;;;;;;;4.97;61.08;95083.34;6148251;23;20191;-77
2022/04/04 07:19:01;;;;;;;14.93;8.70;;;;;;;5.04;62.71;95113.41;6148425;23;20170;-81
2022/04/04 07:21:40;;;;;;;11.43;8.27;;;;;;;5.04;61.72;95107.47;6149361;23;20183;-80
2022/04/04 07:24:11;;;;;;;11.90;8.17;;;;;;;5.22;61.78;95115.69;6149494;23;20270;-75
2022/04/04 07:26:41;;;;;;;15.93;9.47;;;;;;;4.88;61.67;95045.78;6148231;23;20160;-76
2022/04/04 07:29:08;;;;;;;14.10;9.30;;;;;;;5.23;60.24;95086.38;6149002;23;20653;-76
2022/04/04 07:31:36;;;;;;;13.83;9.13;;;;;;;5.55;61.17;95109.28;6148123;23;20195;-76
2022/04/04 07:34:03;;;;;;;14.13;9.23;;;;;;;5.67;59.78;95101.91;6148368;23;20549;-80
2022/04/04 07:36:32;;;;;;;12.10;9.10;;;;;;;5.94;60.02;95116.00;6147208;23;20204;-77
2022/04/04 07:38:59;;;;;;;14.20;8.83;;;;;;;6.02;60.05;95114.13;6147793;23;20194;-75
2022/04/04 07:41:25;;;;;;;11.63;8.33;;;;;;;6.13;57.95;95111.09;6148199;23;20181;-77
2022/04/04 07:43:52;;;;;;;13.07;8.27;;;;;;;6.30;57.08;95106.53;6148461;23;20177;-76
2022/04/04 07:46:19;;;;;;;16.80;9.03;;;;;;;6.19;56.45;95118.13;6147848;23;20315;-76
2022/04/04 07:48:46;;;;;;;13.73;8.80;;;;;;;5.91;57.16;95122.34;6148174;23;20201;-82
2022/04/04 07:51:13;;;;;;;11.73;8.43;;;;;;;5.75;56.69;95114.72;6147720;23;20224;-77
2022/04/04 07:53:42;;;;;;;12.80;8.30;;;;;;;5.66;57.18;95123.50;6147616;23;20231;-77
2022/04/04 07:56:08;;;;;;;10.63;7.77;;;;;;;5.62;57.81;95123.06;6148296;23;20213;-77
2022/04/04 07:58:35;;;;;;;13.17;9.10;;;;;;;5.65;58.40;95106.44;6148318;23;20228;-77
2022/04/04 08:01:03;;;;;;;12.63;8.77;;;;;;;5.90;58.69;95128.44;6147594;23;20173;-77
2022/04/04 08:03:30;;;;;;;12.03;8.43;;;;;;;6.06;58.36;95124.91;6147733;23;20564;-77
2022/04/04 08:05:56;;;;;;;13.13;8.30;;;;;;;6.28;57.50;95114.47;6147328;23;20177;-77
2022/04/04 08:08:24;;;;;;;13.17;8.50;;;;;;;6.31;56.59;95118.47;6147806;23;20186;-83
2022/04/04 08:10:52;;;;;;;16.43;8.37;;;;;;;6.52;56.36;95120.31;6147729;23;20259;-77
2022/04/04 08:13:19;;;;;;;13.83;7.87;;;;;;;6.63;55.41;95123.22;6147479;23;20178;-77
2022/04/04 08:15:47;;;;;;;12.43;8.40;;;;;;;6.66;55.98;95120.28;6148564;23;20589;-76
2022/04/04 08:18:13;;;;;;;15.47;10.17;;;;;;;6.83;56.30;95113.09;6147943;23;20762;-76
2022/04/04 08:20:41;;;;;;;13.47;8.43;;;;;;;6.89;55.84;95114.97;6147263;23;20177;-78
2022/04/04 08:23:08;;;;;;;13.83;8.87;;;;;;;6.91;55.31;95107.81;6148389;23;20560;-78
2022/04/04 08:25:36;;;;;;;12.83;8.53;;;;;;;7.03;55.79;95103.75;6148719;23;20228;-78
2022/04/04 08:28:05;;;;;;;12.47;8.53;;;;;;;7.10;56.97;95096.84;6149569;23;20172;-79
2022/04/04 08:30:31;;;;;;;14.77;8.57;;;;;;;7.36;56.41;95102.25;6147947;23;20262;-79
2022/04/04 08:32:59;;;;;;;14.73;8.97;;;;;;;7.66;55.02;95102.88;6148589;23;20649;-80
2022/04/04 08:35:25;;;;;;;13.43;8.23;;;;;;;7.87;54.27;95105.41;6149046;23;20195;-79
2022/04/04 08:37:52;;;;;;;12.00;8.43;;;;;;;8.00;53.38;95099.50;6148546;23;20217;-79
2022/04/04 08:40:19;;;;;;;11.33;7.57;;;;;;;7.99;52.52;95095.34;6147863;23;20171;-77
2022/04/04 08:42:46;;;;;;;12.90;7.90;;;;;;;8.20;52.17;95086.66;6148584;23;20174;-79
2022/04/04 08:45:15;;;;;;;13.77;8.17;;;;;;;8.23;51.84;95084.47;6147769;23;20872;-77
2022/04/04 08:47:42;;;;;;;12.73;8.60;;;;;;;8.20;52.46;95074.50;6147394;23;20533;-78
2022/04/04 08:50:11;;;;;;;17.67;8.23;;;;;;;8.29;52.27;95083.75;6147518;23;20166;-78
2022/04/04 08:52:38;;;;;;;13.90;8.07;;;;;;;8.41;51.75;95076.22;6148065;23;20171;-78
2022/04/04 08:55:08;;;;;;;10.97;7.70;;;;;;;8.34;50.58;95062.47;6147999;23;20168;-78
2022/04/04 08:57:34;;;;;;;11.90;7.80;;;;;;;8.36;51.73;95065.66;6147557;23;20225;-77
2022/04/04 09:00:01;;;;;;;15.67;8.00;;;;;;;8.41;51.09;95060.69;6152344;23;20657;-77
2022/04/04 09:02:29;;;;;;;12.90;8.50;;;;;;;8.56;50.61;95066.53;6150434;23;20175;-77
2022/04/04 09:05:04;;;;;;;13.23;7.90;;;;;;;8.72;50.40;95063.56;6147667;23;20168;-77
2022/04/04 09:07:30;;;;;;;11.37;8.30;;;;;;;8.72;50.96;95058.38;6148079;23;20212;-77
2022/04/04 09:09:57;;;;;;;10.90;7.50;;;;;;;8.88;50.30;95049.44;6147700;23;20171;-77
2022/04/04 09:12:26;;;;;;;10.97;7.43;;;;;;;9.17;50.15;95053.47;6147613;23;20217;-78
2022/04/04 09:14:56;;;;;;;12.60;8.20;;;;;;;9.38;49.58;95055.88;6147715;23;20178;-77
2022/04/04 09:17:27;;;;;;;9.73;7.63;;;;;;;9.43;48.91;95040.50;6147697;23;20519;-77
2022/04/04 09:19:55;;;;;;;11.73;7.93;;;;;;;9.46;49.41;95042.69;6147602;23;20191;-77
2022/04/04 09:22:23;;;;;;;13.00;8.40;;;;;;;9.68;49.43;95046.63;6147186;23;20174;-77
2022/04/04 09:24:52;;;;;;;13.07;8.73;;;;;;;9.85;49.15;95037.41;6147939;23;20172;-77
2022/04/04 09:27:24;;;;;;;12.40;8.73;;;;;;;10.06;48.26;95026.78;6148434;23;20174;-77
2022/04/04 09:29:54;;;;;;;15.80;8.37;;;;;;;10.24;48.55;95028.75;6148181;23;20176;-76
2022/04/04 09:32:22;;;;;;;13.47;9.57;;;;;;;10.23;46.79;95014.97;6148597;23;20167;-77
2022/04/04 09:34:54;;;;;;;11.57;8.07;;;;;;;10.31;48.09;95018.31;6148545;23;20163;-77
2022/04/04 09:37:24;;;;;;;12.27;7.77;;;;;;;10.40;47.83;95015.28;6147915;23;20262;-76
2022/04/04 09:39:52;;;;;;;11.33;7.10;;;;;;;10.29;46.77;95013.31;6149285;23;20167;-78
2022/04/04 09:42:21;;;;;;;8.67;6.70;;;;;;;10.23;47.35;95012.34;6148787;23;20172;-77
2022/04/04 09:44:58;;;;;;;9.00;7.00;;;;;;;10.49;47.21;95010.63;6149422;23;20176;-76
2022/04/04 09:47:46;;;;;;;10.03;7.00;;;;;;;10.66;46.98;95009.13;6148671;23;20245;-76
2022/04/04 09:50:35;;;;;;;10.53;6.83;;;;;;;10.84;46.59;94996.22;6148428;23;20183;-76
2022/04/04 09:53:04;;;;;;;11.20;7.03;;;;;;;11.20;46.62;94996.31;6148304;23;20247;-77
2022/04/04 09:55:32;;;;;;;11.60;6.87;;;;;;;11.33;44.47;94998.03;6149248;23;20176;-76
2022/04/04 09:58:01;;;;;;;11.73;7.53;;;;;;;11.51;44.75;94986.88;6148682;23;20649;-77
2022/04/04 10:00:28;;;;;;;14.87;9.20;;;;;;;11.68;44.38;94980.09;6149001;23;20175;-77
2022/04/04 10:02:57;;;;;;;10.40;6.80;;;;;;;11.76;44.43;94959.00;6148913;23;20207;-76
2022/04/04 10:05:27;;;;;;;9.73;6.70;;;;;;;11.92;43.04;94977.44;6149317;23;20168;-77
2022/04/04 10:07:56;;;;;;;11.37;6.53;;;;;;;11.89;42.34;94964.03;6150539;23;20187;-78
2022/04/04 10:10:29;;;;;;;9.97;6.57;;;;;;;11.90;43.37;94963.84;6149659;23;20168;-77
2022/04/04 10:12:56;;;;;;;12.33;7.07;;;;;;;12.21;43.41;94959.44;6149519;23;20156;-77
2022/04/04 10:15:25;;;;;;;12.57;6.67;;;;;;;12.29;42.76;94954.75;6148872;23;20172;-78
2022/04/04 10:17:53;;;;;;;10.03;6.97;;;;;;;12.29;41.69;94938.31;6149118;23;20172;-78
2022/04/04 10:20:21;;;;;;;10.03;6.87;;;;;;;12.39;43.24;94949.78;6149561;23;20234;-83
2022/04/04 10:22:50;;;;;;;13.97;6.83;;;;;;;12.24;42.98;94946.78;6149607;23;20251;-76
2022/04/04 10:25:22;;;;;;;10.37;6.60;;;;;;;12.18;43.63;94928.66;6148524;23;20172;-77
2022/04/04 10:27:51;;;;;;;10.43;6.20;;;;;;;12.27;43.52;94929.91;6149814;23;20156;-77
2022/04/04 10:30:33;;;;;;;12.33;6.50;;;;;;;12.31;42.40;94931.06;6148936;23;20179;-78
2022/04/04 10:33:01;;;;;;;9.80;6.73;;;;;;;12.22;42.76;94906.31;6149843;23;20646;-77
2022/04/04 10:35:30;;;;;;;7.87;5.87;;;;;;;12.22;42.60;94916.75;6149169;23;20167;-79
2022/04/04 10:37:59;;;;;;;7.60;5.50;;;;;;;12.44;42.47;94926.44;6149199;23;20172;-78
2022/04/04 10:40:29;;;;;;;9.40;6.20;;;;;;;12.14;42.96;94919.66;6149368;23;20666;-78
2022/04/04 10:43:16;;;;;;;9.70;6.30;;;;;;;12.29;43.31;94918.25;6149970;23;20191;-78
2022/04/04 10:45:55;;;;;;;7.63;5.80;;;;;;;12.37;42.55;94917.94;6148771;23;20221;-77
2022/04/04 10:48:28;;;;;;;8.10;6.50;;;;;;;12.09;42.61;94904.69;6147847;23;20781;-78
2022/04/04 10:50:55;;;;;;;10.03;6.77;;;;;;;11.66;43.50;94899.56;6149040;23;20167;-77
2022/04/04 10:53:39;;;;;;;9.83;6.77;;;;;;;11.62;44.26;94915.88;6148138;23;20176;-77
2022/04/04 10:56:09;;;;;;;9.43;6.60;;;;;;;11.49;43.76;94889.97;6146487;23;20737;-76
2022/04/04 10:58:38;;;;;;;9.00;6.40;;;;;;;11.59;43.25;94911.09;6148555;23;20176;-77
2022/04/04 11:01:09;;;;;;;10.67;7.27;;;;;;;11.57;43.38;94900.09;6148049;23;20229;-78
2022/04/04 11:03:38;;;;;;;10.50;7.13;;;;;;;11.69;43.35;94899.16;6148722;23;20164;-78
2022/04/04 11:09:14;;;;;;;9.73;7.07;;;;;;;12.02;42.89;94897.97;6147951;23;20159;-76
2022/04/04 11:11:54;;;;;;;9.00;6.87;;;;;;;11.75;42.99;94903.50;6148179;23;20198;-76
2022/04/04 11:14:54;;;;;;;15.13;9.43;;;;;;;11.65;43.11;94895.41;6148491;23;20163;-78
2022/04/04 11:17:36;;;;;;;11.33;8.07;;;;;;;11.89;44.05;94899.72;6148376;23;20200;-77
2022/04/04 11:20:34;;;;;;;10.40;7.80;;;;;;;12.36;43.71;94897.28;6148577;23;20164;-78
2022/04/04 11:23:04;;;;;;;10.07;6.60;;;;;;;12.57;41.04;94885.56;6143943;23;20176;-76
2022/04/04 11:25:35;;;;;;;8.37;6.43;;;;;;;12.20;41.67;94893.53;6148265;23;20244;-76
2022/04/04 11:28:03;;;;;;;9.37;6.60;;;;;;;12.02;42.54;94885.75;6148386;23;20251;-76
2022/04/04 11:30:31;;;;;;;10.03;6.87;;;;;;;12.10;42.93;94875.00;6147729;23;20279;-75
2022/04/04 11:32:59;;;;;;;9.43;7.40;;;;;;;12.14;41.86;94877.97;6148916;23;20172;-76
2022/04/04 11:35:30;;;;;;;8.77;6.80;;;;;;;12.12;41.76;94877.41;6148317;23;20654;-76
2022/04/04 11:38:00;;;;;;;9.60;6.40;;;;;;;12.04;41.69;94860.25;6148262;23;20187;-75
2022/04/04 11:40:34;;;;;;;7.93;6.07;;;;;;;12.01;42.08;94858.09;6147925;23;20156;-76
2022/04/04 11:43:02;;;;;;;11.43;6.70;;;;;;;12.10;41.90;94874.22;6148380;23;20160;-77
2022/04/04 11:45:35;;;;;;;8.03;6.23;;;;;;;12.15;42.70;94851.69;6146887;23;20172;-75